North Monroeville, Ohio
Current Conditions -  °F | °C
As of 4:53 AM on Sunday 26 Oct 2014 (Local Time) from KPCW Reporting Station
Clear Clear  
Wind Chill: 55°   Ceiling: Unl
Heat Index: 55°   Visibility: 10mi
Dew Point: 38°   Wind: 13mph
Humidity: 53%   Direction: 320°NW
Pressure: 29.87"   Gusts: NA
Location:  41.2282°N, 82.706°W
Report Text: KPCW 260853Z AUTO 32011KT 10SM CLR 13/03 A2987 RMK AO2 51012 T01270033 $
Loading
Personal Weather Stations






























Interactive Weather Map
Tropical Storm Tracking
New forecast layout! Learn more

10-Day Weather Forecast

Advertisements
Track Severe Weather on mobile